createdAt,value
2019-06-26T00:01:26.598Z,26
2019-06-26T00:11:26.506Z,25
2019-06-26T00:21:26.629Z,25
2019-06-26T00:31:26.611Z,25
2019-06-26T00:41:27.842Z,25
2019-06-26T00:51:26.693Z,25
2019-06-26T01:01:26.806Z,25
2019-06-26T01:11:28.250Z,25
2019-06-26T01:21:26.126Z,25
2019-06-26T01:31:26.102Z,25
2019-06-26T01:41:28.647Z,25
2019-06-26T01:51:27.083Z,25
2019-06-26T02:01:26.212Z,25
2019-06-26T02:11:26.850Z,25
2019-06-26T02:21:27.361Z,24
2019-06-26T02:31:26.118Z,24
2019-06-26T02:41:26.695Z,25
2019-06-26T02:51:27.784Z,24
2019-06-26T03:01:27.194Z,24
2019-06-26T03:11:26.730Z,24
2019-06-26T03:21:26.857Z,24
2019-06-26T03:31:27.593Z,25
2019-06-26T03:41:26.301Z,24
2019-06-26T03:51:25.926Z,24
2019-06-26T04:01:27.715Z,25
2019-06-26T04:11:26.561Z,25
2019-06-26T04:21:26.881Z,24
2019-06-26T04:31:27.096Z,25
2019-06-26T04:41:27.030Z,25
2019-06-26T04:51:29.652Z,25
2019-06-26T05:01:26.228Z,25
2019-06-26T05:11:27.827Z,25
2019-06-26T05:21:27.795Z,25
2019-06-26T05:31:27.035Z,25
2019-06-26T05:41:26.855Z,25
2019-06-26T05:51:27.134Z,26
2019-06-26T06:01:26.921Z,26
2019-06-26T06:11:28.437Z,26
2019-06-26T06:21:26.514Z,26
2019-06-26T06:31:26.420Z,26
2019-06-26T06:41:26.305Z,27
2019-06-26T06:51:26.609Z,27
2019-06-26T07:01:26.786Z,28
2019-06-26T07:11:27.627Z,28
2019-06-26T07:21:27.472Z,28
2019-06-26T07:31:27.634Z,28
2019-06-26T07:41:26.555Z,28
2019-06-26T07:51:26.594Z,28
2019-06-26T08:01:27.597Z,28
2019-06-26T08:11:26.337Z,28
2019-06-26T08:21:26.190Z,29
2019-06-26T08:31:31.038Z,29
2019-06-26T08:41:27.701Z,29
2019-06-26T08:51:26.383Z,29
2019-06-26T09:01:26.462Z,29
2019-06-26T09:11:26.562Z,29
2019-06-26T09:21:28.738Z,29
2019-06-26T09:31:27.355Z,30
2019-06-26T09:41:26.230Z,30
2019-06-26T09:51:26.034Z,30
2019-06-26T10:01:29.813Z,31
2019-06-26T10:11:26.633Z,30
2019-06-26T10:21:26.475Z,30
2019-06-26T10:31:26.157Z,31
2019-06-26T10:41:26.939Z,31
2019-06-26T10:51:27.273Z,31
2019-06-26T11:01:27.939Z,31
2019-06-26T11:11:26.839Z,31
2019-06-26T11:21:27.549Z,32
2019-06-26T11:31:26.735Z,32
2019-06-26T11:41:27.294Z,32
2019-06-26T11:51:28.750Z,32
2019-06-26T12:01:26.958Z,32
2019-06-26T12:11:26.762Z,32
2019-06-26T12:21:26.775Z,32
2019-06-26T12:31:27.683Z,32
2019-06-26T12:41:26.678Z,32
2019-06-26T12:51:26.628Z,32
2019-06-26T13:01:26.755Z,33
2019-06-26T13:11:26.612Z,33
2019-06-26T13:21:26.672Z,34
2019-06-26T13:31:26.811Z,33
2019-06-26T13:41:26.549Z,33
2019-06-26T13:51:26.975Z,34
2019-06-26T14:01:26.620Z,34
2019-06-26T14:11:26.519Z,34
2019-06-26T14:21:27.616Z,34
2019-06-26T14:31:26.617Z,34
2019-06-26T14:41:27.029Z,35
2019-06-26T14:51:48.062Z,34
2019-06-26T15:01:27.429Z,35
2019-06-26T15:11:26.240Z,35
2019-06-26T15:21:27.191Z,35
2019-06-26T15:31:27.244Z,34
2019-06-26T15:41:27.623Z,35
2019-06-26T15:51:26.897Z,34
2019-06-26T16:01:28.520Z,34
2019-06-26T16:11:28.606Z,34
2019-06-26T16:21:26.679Z,35
2019-06-26T16:31:27.694Z,35
2019-06-26T16:41:26.339Z,35
2019-06-26T16:51:26.312Z,36
2019-06-26T17:01:27.987Z,36
2019-06-26T17:11:27.617Z,38
2019-06-26T17:21:26.735Z,38
2019-06-26T17:31:26.546Z,38
2019-06-26T17:41:27.437Z,35
2019-06-26T17:51:27.577Z,35
2019-06-26T18:01:31.768Z,35
2019-06-26T18:11:27.408Z,34
2019-06-26T18:21:26.443Z,33
2019-06-26T18:31:26.698Z,32
2019-06-26T18:41:27.527Z,32
2019-06-26T18:51:26.930Z,32
2019-06-26T19:01:27.787Z,31
2019-06-26T19:11:27.375Z,31
2019-06-26T19:21:26.613Z,31
2019-06-26T19:31:26.848Z,31
2019-06-26T19:41:26.880Z,31
2019-06-26T19:51:26.683Z,31
2019-06-26T20:01:26.836Z,30
2019-06-26T20:11:27.456Z,30
2019-06-26T20:21:28.975Z,30
2019-06-26T20:31:27.398Z,30
2019-06-26T20:41:26.012Z,30
2019-06-26T20:51:27.089Z,29
2019-06-26T21:01:27.053Z,29
2019-06-26T21:11:28.344Z,29
2019-06-26T21:21:26.171Z,29
2019-06-26T21:31:28.130Z,29
2019-06-26T21:41:28.583Z,29
2019-06-26T21:51:27.221Z,29
2019-06-26T22:01:25.977Z,29
2019-06-26T22:11:27.657Z,29
2019-06-26T22:21:27.264Z,28
2019-06-26T22:31:26.938Z,29
2019-06-26T22:41:26.623Z,29
2019-06-26T22:51:27.436Z,29
2019-06-26T23:01:28.187Z,28
2019-06-26T23:11:27.006Z,28
2019-06-26T23:21:27.119Z,28
2019-06-26T23:31:27.429Z,28
2019-06-26T23:41:26.863Z,28
2019-06-26T23:51:26.713Z,28
